createdAt,value
2023-09-17T00:01:07.494Z,3.8
2023-09-17T00:02:15.880Z,3.8
2023-09-17T00:03:24.207Z,3.8
2023-09-17T00:04:32.696Z,3.9
2023-09-17T00:05:41.010Z,3.9
2023-09-17T00:06:49.331Z,3.9
2023-09-17T00:07:57.889Z,4.1
2023-09-17T00:09:06.249Z,4.1
2023-09-17T00:10:14.598Z,4.1
2023-09-17T00:11:23.104Z,4.1
2023-09-17T00:12:31.430Z,4.1
2023-09-17T00:13:39.791Z,4.1
2023-09-17T00:14:48.289Z,4
2023-09-17T00:15:56.663Z,4
2023-09-17T00:17:05.003Z,4
2023-09-17T00:18:13.490Z,3.9
2023-09-17T00:19:21.846Z,3.9
2023-09-17T00:20:30.173Z,3.9
2023-09-17T00:21:38.710Z,4
2023-09-17T00:22:47.109Z,4
2023-09-17T00:23:55.367Z,4
2023-09-17T00:25:03.911Z,3.7
2023-09-17T00:26:12.265Z,3.7
2023-09-17T00:27:20.599Z,3.7
2023-09-17T00:28:29.170Z,3.8
2023-09-17T00:29:37.464Z,3.8
2023-09-17T00:30:45.862Z,3.8
2023-09-17T00:31:54.450Z,4.1
2023-09-17T00:33:02.679Z,4.1
2023-09-17T00:34:11.020Z,4.1
2023-09-17T00:35:19.554Z,4.9
2023-09-17T00:36:27.867Z,4.9
2023-09-17T00:37:36.189Z,4.9
2023-09-17T00:38:44.721Z,5.4
2023-09-17T00:39:53.064Z,5.4
2023-09-17T00:41:01.413Z,5.4
2023-09-17T00:42:09.933Z,5.2
2023-09-17T00:43:18.287Z,5.2
2023-09-17T00:44:26.616Z,5.2
2023-09-17T00:45:35.164Z,4.5
2023-09-17T00:46:43.604Z,4.5
2023-09-17T00:47:51.866Z,4.5
2023-09-17T00:49:00.353Z,5.3
2023-09-17T00:50:08.693Z,5.3
2023-09-17T00:51:17.032Z,5.3
2023-09-17T00:52:25.611Z,4.7
2023-09-17T00:53:33.932Z,4.7
2023-09-17T00:54:42.259Z,4.7
2023-09-17T00:55:50.792Z,4.8
2023-09-17T00:56:59.151Z,4.8
2023-09-17T00:58:07.458Z,4.8
2023-09-17T00:59:15.987Z,4.9
2023-09-17T01:00:24.316Z,4.9
2023-09-17T01:01:32.693Z,4.9
2023-09-17T01:02:41.407Z,4.9
2023-09-17T01:03:49.843Z,4.9
2023-09-17T01:04:57.849Z,4.9
2023-09-17T01:06:06.392Z,4.8
2023-09-17T01:07:14.765Z,4.8
2023-09-17T01:08:23.086Z,4.8
2023-09-17T01:09:31.593Z,4.6
2023-09-17T01:10:40.021Z,4.6
2023-09-17T01:11:48.279Z,4.6
2023-09-17T01:12:56.827Z,5.2
2023-09-17T01:14:05.138Z,5.2
2023-09-17T01:15:13.485Z,5.2
2023-09-17T01:16:22.073Z,4.8
2023-09-17T01:17:30.365Z,4.8
2023-09-17T01:18:38.696Z,4.8
2023-09-17T01:19:47.322Z,4.9
2023-09-17T01:20:55.556Z,4.9
2023-09-17T01:22:03.890Z,4.9
2023-09-17T01:23:12.419Z,4.7
2023-09-17T01:24:20.751Z,4.7
2023-09-17T01:25:29.090Z,4.7
2023-09-17T01:26:37.613Z,4.5
2023-09-17T01:27:45.942Z,4.5
2023-09-17T01:28:54.276Z,4.5
2023-09-17T01:30:02.802Z,4.8
2023-09-17T01:31:11.181Z,4.8
2023-09-17T01:32:19.478Z,4.8
2023-09-17T01:33:28.033Z,4.6
2023-09-17T01:34:36.383Z,4.6
2023-09-17T01:35:44.732Z,4.6
2023-09-17T01:36:53.241Z,4.7
2023-09-17T01:38:01.553Z,4.7
2023-09-17T01:39:09.885Z,4.7
2023-09-17T01:40:18.455Z,4.4
2023-09-17T01:41:26.762Z,4.4
2023-09-17T01:42:35.082Z,4.4
2023-09-17T01:43:43.645Z,4.5
2023-09-17T01:44:51.936Z,4.5
2023-09-17T01:46:00.355Z,4.5
2023-09-17T01:47:08.812Z,4.6
2023-09-17T01:48:17.163Z,4.6
2023-09-17T01:49:25.507Z,4.6
2023-09-17T01:50:34.009Z,4.6
2023-09-17T01:51:42.362Z,4.6
2023-09-17T01:52:50.679Z,4.6
2023-09-17T01:53:59.197Z,4.3
2023-09-17T01:55:07.547Z,4.3
2023-09-17T01:56:15.894Z,4.3
2023-09-17T01:57:24.407Z,5.3
2023-09-17T01:58:32.754Z,5.3
2023-09-17T01:59:41.090Z,5.3
2023-09-17T02:00:49.612Z,4.7
2023-09-17T02:01:57.973Z,4.7
2023-09-17T02:03:06.340Z,4.7
2023-09-17T02:04:14.825Z,4.9
2023-09-17T02:05:23.141Z,4.9
2023-09-17T02:06:31.465Z,4.9
2023-09-17T02:07:40.060Z,5.1
2023-09-17T02:08:48.341Z,5.1
2023-09-17T02:09:56.665Z,5.1
2023-09-17T02:11:05.210Z,4.6
2023-09-17T02:12:13.557Z,4.6
2023-09-17T02:13:21.903Z,4.6
2023-09-17T02:14:30.412Z,5.3
2023-09-17T02:15:38.762Z,5.3
2023-09-17T02:16:47.146Z,5.3
2023-09-17T02:17:55.648Z,5.1
2023-09-17T02:19:03.963Z,5.1
2023-09-17T02:20:12.447Z,5.1
2023-09-17T02:21:20.838Z,5
2023-09-17T02:22:29.220Z,5
2023-09-17T02:23:37.539Z,5
2023-09-17T02:24:46.030Z,4.8
2023-09-17T02:25:54.369Z,4.8
2023-09-17T02:27:02.728Z,4.8
2023-09-17T02:28:11.234Z,5.6
2023-09-17T02:29:19.562Z,5.6
2023-09-17T02:30:27.866Z,5.6
2023-09-17T02:31:36.502Z,5.5
2023-09-17T02:32:44.746Z,5.5
2023-09-17T02:33:53.261Z,5.5
2023-09-17T02:35:01.601Z,5.7
2023-09-17T02:36:09.930Z,5.7
2023-09-17T02:37:18.263Z,5.7
2023-09-17T02:38:26.767Z,5
2023-09-17T02:39:35.128Z,5
2023-09-17T02:40:43.448Z,5
2023-09-17T02:41:51.952Z,5.5
2023-09-17T02:43:00.279Z,5.5
2023-09-17T02:44:08.615Z,5.5
2023-09-17T02:45:17.152Z,5.1
2023-09-17T02:46:25.522Z,5.1
2023-09-17T02:47:33.935Z,5.1
2023-09-17T02:48:42.341Z,5.2
2023-09-17T02:49:50.723Z,5.2
2023-09-17T02:50:58.993Z,5.2
2023-09-17T02:52:07.521Z,4.7
2023-09-17T02:53:15.875Z,4.7
2023-09-17T02:54:24.233Z,4.7
2023-09-17T02:55:32.858Z,5.1
2023-09-17T02:56:41.082Z,5.1
2023-09-17T02:57:49.420Z,5.1
2023-09-17T02:58:57.966Z,5
2023-09-17T03:00:06.284Z,5
2023-09-17T03:01:14.683Z,5
2023-09-17T03:02:23.290Z,4.8
2023-09-17T03:03:31.473Z,4.8
2023-09-17T03:04:39.811Z,4.8
2023-09-17T03:05:48.357Z,4.4
2023-09-17T03:06:56.645Z,4.4
2023-09-17T03:08:04.981Z,4.4
2023-09-17T03:09:13.508Z,4.9
2023-09-17T03:10:21.867Z,4.9
2023-09-17T03:11:30.211Z,4.9
2023-09-17T03:12:38.703Z,5.1
2023-09-17T03:13:47.037Z,5.1
2023-09-17T03:14:55.348Z,5.1
2023-09-17T03:16:03.884Z,4.4
2023-09-17T03:17:12.275Z,4.4
2023-09-17T03:18:20.538Z,4.4
2023-09-17T03:19:29.119Z,5
2023-09-17T03:20:37.400Z,5
2023-09-17T03:21:45.728Z,5
2023-09-17T03:22:54.293Z,4.3
2023-09-17T03:24:02.571Z,4.3
2023-09-17T03:25:10.916Z,4.3
2023-09-17T03:26:19.444Z,4.1
2023-09-17T03:27:27.811Z,4.1
2023-09-17T03:28:36.144Z,4.1
2023-09-17T03:29:44.633Z,4.3
2023-09-17T03:30:53.048Z,4.3
2023-09-17T03:32:01.372Z,4.3
2023-09-17T03:33:09.916Z,4.8
2023-09-17T03:34:18.232Z,4.8
2023-09-17T03:35:26.557Z,4.8
2023-09-17T03:36:35.071Z,4.5
2023-09-17T03:37:43.401Z,4.5
2023-09-17T03:38:51.728Z,4.5
2023-09-17T03:40:00.282Z,4.9
2023-09-17T03:41:08.614Z,4.9
2023-09-17T03:42:16.939Z,4.9
2023-09-17T03:43:25.551Z,4.8
2023-09-17T03:44:33.810Z,4.8
2023-09-17T03:45:42.141Z,4.8
2023-09-17T03:46:50.712Z,5.9
2023-09-17T03:47:59.036Z,5.9
2023-09-17T03:49:07.311Z,5.9
2023-09-17T03:50:17.412Z,6.1
2023-09-17T03:51:24.176Z,6.1
2023-09-17T03:52:32.547Z,6.1
2023-09-17T03:53:41.028Z,6
2023-09-17T03:54:49.360Z,6
2023-09-17T03:55:57.694Z,6
2023-09-17T03:57:06.248Z,6
2023-09-17T03:58:14.565Z,6
2023-09-17T03:59:22.941Z,6
2023-09-17T04:00:31.444Z,6.2
2023-09-17T04:01:39.861Z,6.2
2023-09-17T04:02:48.117Z,6.2
2023-09-17T04:03:56.659Z,6
2023-09-17T04:05:04.993Z,6
2023-09-17T04:06:13.289Z,6
2023-09-17T04:07:21.846Z,5.7
2023-09-17T04:08:30.183Z,5.7
2023-09-17T04:09:38.531Z,5.7
2023-09-17T04:10:47.091Z,5.5
2023-09-17T04:11:55.391Z,5.5
2023-09-17T04:13:03.723Z,5.5
2023-09-17T04:14:12.269Z,5.8
2023-09-17T04:15:20.646Z,5.8
2023-09-17T04:16:28.940Z,5.8
2023-09-17T04:17:37.470Z,5.8
2023-09-17T04:18:45.807Z,5.8
2023-09-17T04:19:54.166Z,5.8
2023-09-17T04:21:02.640Z,5.5
2023-09-17T04:22:10.967Z,5.5
2023-09-17T04:23:19.302Z,5.5
2023-09-17T04:24:27.834Z,5.7
2023-09-17T04:25:36.189Z,5.7
2023-09-17T04:26:44.483Z,5.7
2023-09-17T04:27:53.032Z,6
2023-09-17T04:29:01.356Z,6
2023-09-17T04:30:09.699Z,6
2023-09-17T04:31:18.299Z,5.2
2023-09-17T04:32:26.658Z,5.2
2023-09-17T04:33:34.917Z,5.2
2023-09-17T04:34:43.483Z,5.5
2023-09-17T04:35:51.798Z,5.5
2023-09-17T04:37:00.146Z,5.5
2023-09-17T04:38:08.661Z,4.8
2023-09-17T04:39:16.969Z,4.8
2023-09-17T04:40:25.334Z,4.8
2023-09-17T04:41:33.876Z,4.5
2023-09-17T04:42:42.195Z,4.5
2023-09-17T04:43:50.693Z,4.5
2023-09-17T04:44:59.049Z,4.7
2023-09-17T04:46:07.400Z,4.7
2023-09-17T04:47:15.740Z,4.7
2023-09-17T04:48:24.245Z,5.1
2023-09-17T04:49:32.582Z,5.1
2023-09-17T04:50:40.889Z,5.1
2023-09-17T04:51:49.429Z,4.9
2023-09-17T04:52:57.782Z,4.9
2023-09-17T04:54:06.068Z,4.9
2023-09-17T04:55:14.615Z,5.3
2023-09-17T04:56:22.932Z,5.3
2023-09-17T04:57:31.255Z,5.3
2023-09-17T04:58:39.805Z,5
2023-09-17T04:59:48.123Z,5
2023-09-17T05:00:56.433Z,5
2023-09-17T05:02:05.024Z,5
2023-09-17T05:03:13.497Z,5
2023-09-17T05:04:21.727Z,5
2023-09-17T05:05:30.201Z,5.1
2023-09-17T05:06:38.536Z,5.1
2023-09-17T05:07:46.882Z,5.1
2023-09-17T05:08:55.388Z,5
2023-09-17T05:10:03.725Z,5
2023-09-17T05:11:12.044Z,5
2023-09-17T05:12:20.593Z,4.9
2023-09-17T05:13:28.929Z,4.9
2023-09-17T05:14:37.265Z,4.9
2023-09-17T05:15:45.829Z,5
2023-09-17T05:16:54.135Z,5
2023-09-17T05:18:02.510Z,5
2023-09-17T05:19:11.053Z,4.5
2023-09-17T05:20:19.380Z,4.5
2023-09-17T05:21:27.692Z,4.5
2023-09-17T05:22:36.708Z,4.1
2023-09-17T05:23:44.562Z,4.1
2023-09-17T05:24:52.881Z,4.1
2023-09-17T05:26:01.484Z,3.8
2023-09-17T05:27:09.757Z,3.8
2023-09-17T05:28:18.086Z,3.8
2023-09-17T05:29:26.710Z,3.9
2023-09-17T05:30:34.968Z,3.9
2023-09-17T05:31:43.351Z,3.9
2023-09-17T05:32:51.861Z,4
2023-09-17T05:34:00.187Z,4
2023-09-17T05:35:08.565Z,4
2023-09-17T05:36:17.087Z,4.1
2023-09-17T05:37:25.446Z,4.1
2023-09-17T05:38:33.746Z,4.1
2023-09-17T05:39:42.281Z,4.1
2023-09-17T05:40:50.644Z,4.1
2023-09-17T05:41:58.988Z,4.1
2023-09-17T05:43:07.544Z,4.6
2023-09-17T05:44:15.860Z,4.6
2023-09-17T05:45:24.223Z,4.6
2023-09-17T05:46:32.807Z,5
2023-09-17T05:47:41.133Z,5
2023-09-17T05:48:49.412Z,5
2023-09-17T05:49:58.018Z,4.8
2023-09-17T05:51:06.353Z,4.8
2023-09-17T05:52:14.665Z,4.8
2023-09-17T05:53:23.170Z,4.1
2023-09-17T05:54:31.490Z,4.1
2023-09-17T05:55:39.851Z,4.1
2023-09-17T05:56:48.374Z,4.5
2023-09-17T05:57:56.698Z,4.5
2023-09-17T05:59:05.127Z,4.5
2023-09-17T06:00:13.642Z,4.7
2023-09-17T06:01:22.027Z,4.7
2023-09-17T06:02:30.317Z,4.7
2023-09-17T06:03:38.882Z,4.3
2023-09-17T06:04:47.245Z,4.3
2023-09-17T06:05:55.542Z,4.3
2023-09-17T06:07:04.104Z,4.3
2023-09-17T06:08:12.369Z,4.3
2023-09-17T06:09:20.698Z,4.3
2023-09-17T06:10:29.249Z,4.2
2023-09-17T06:11:37.548Z,4.2
2023-09-17T06:12:45.872Z,4.2
2023-09-17T06:13:54.670Z,4
2023-09-17T06:15:02.763Z,4
2023-09-17T06:16:11.124Z,4
2023-09-17T06:17:19.655Z,4.3
2023-09-17T06:18:27.969Z,4.3
2023-09-17T06:19:36.287Z,4.3
2023-09-17T06:20:44.816Z,4.5
2023-09-17T06:21:53.139Z,4.5
2023-09-17T06:23:01.541Z,4.5
2023-09-17T06:24:10.015Z,4.8
2023-09-17T06:25:18.347Z,4.8
2023-09-17T06:26:26.669Z,4.8
2023-09-17T06:27:35.226Z,4.6
2023-09-17T06:28:43.586Z,4.6
2023-09-17T06:29:51.887Z,4.6
2023-09-17T06:31:00.456Z,4.4
2023-09-17T06:32:08.810Z,4.4
2023-09-17T06:33:17.087Z,4.4
2023-09-17T06:34:25.659Z,4.5
2023-09-17T06:35:33.935Z,4.5
2023-09-17T06:36:42.330Z,4.5
2023-09-17T06:37:50.891Z,4.5
2023-09-17T06:38:59.203Z,4.5
2023-09-17T06:40:07.507Z,4.5
2023-09-17T06:41:16.061Z,5.1
2023-09-17T06:42:24.393Z,5.1
2023-09-17T06:43:32.709Z,5.1
2023-09-17T06:44:41.289Z,4.4
2023-09-17T06:45:49.654Z,4.4
2023-09-17T06:46:58.072Z,4.4
2023-09-17T06:48:06.525Z,4.8
2023-09-17T06:49:14.847Z,4.8
2023-09-17T06:50:23.171Z,4.8
2023-09-17T06:51:31.719Z,5.4
2023-09-17T06:52:40.078Z,5.4
2023-09-17T06:53:48.429Z,5.4
2023-09-17T06:54:56.960Z,5.6
2023-09-17T06:56:05.259Z,5.6
2023-09-17T06:57:13.571Z,5.6
2023-09-17T06:58:22.167Z,5.2
2023-09-17T06:59:30.445Z,5.2
2023-09-17T07:00:38.825Z,5.2
2023-09-17T07:01:47.403Z,5.5
2023-09-17T07:02:55.799Z,5.5
2023-09-17T07:04:04.033Z,5.5
2023-09-17T07:05:12.653Z,5.3
2023-09-17T07:06:20.934Z,5.3
2023-09-17T07:07:29.252Z,5.3
2023-09-17T07:08:37.765Z,5.6
2023-09-17T07:09:46.089Z,5.6
2023-09-17T07:10:54.496Z,5.6
2023-09-17T07:12:02.964Z,5.8
2023-09-17T07:13:11.305Z,5.8
2023-09-17T07:14:19.635Z,5.8
2023-09-17T07:15:28.162Z,5.7
2023-09-17T07:16:36.542Z,5.7
2023-09-17T07:17:44.878Z,5.7
2023-09-17T07:18:53.381Z,7.3
2023-09-17T07:20:01.721Z,7.3
2023-09-17T07:21:10.061Z,7.3
2023-09-17T07:22:18.638Z,6.4
2023-09-17T07:23:27.005Z,6.4
2023-09-17T07:24:35.575Z,6.4
2023-09-17T07:25:47.717Z,5.5
2023-09-17T07:26:56.530Z,5.5
2023-09-17T07:28:04.855Z,5.5
2023-09-17T07:29:13.537Z,5
2023-09-17T07:30:21.861Z,5
2023-09-17T07:31:30.252Z,5
2023-09-17T07:32:38.760Z,4.8
2023-09-17T07:33:47.071Z,4.8
2023-09-17T07:34:55.506Z,4.8
2023-09-17T07:36:03.961Z,4.8
2023-09-17T07:37:12.251Z,4.8
2023-09-17T07:38:20.583Z,4.8
2023-09-17T07:39:29.105Z,5.2
2023-09-17T07:40:37.432Z,5.2
2023-09-17T07:41:45.756Z,5.2
2023-09-17T07:42:54.318Z,4.9
2023-09-17T07:44:02.646Z,4.9
2023-09-17T07:45:11.779Z,4.9
2023-09-17T07:46:20.360Z,5.1
2023-09-17T07:47:28.718Z,5.1
2023-09-17T07:48:36.986Z,5.1
2023-09-17T07:49:45.534Z,5.2
2023-09-17T07:50:53.821Z,5.2
2023-09-17T07:52:02.172Z,5.2
2023-09-17T07:53:10.698Z,4.6
2023-09-17T07:54:19.037Z,4.6
2023-09-17T07:55:27.398Z,4.6
2023-09-17T07:56:35.925Z,4.6
2023-09-17T07:57:44.236Z,4.6
2023-09-17T07:58:52.617Z,4.6
2023-09-17T08:00:01.102Z,4.6
2023-09-17T08:01:09.473Z,4.6
2023-09-17T08:02:18.011Z,4.6
2023-09-17T08:03:26.482Z,3.8
2023-09-17T08:04:34.808Z,3.8
2023-09-17T08:05:43.079Z,3.8
2023-09-17T08:06:51.652Z,3.5
2023-09-17T08:07:59.996Z,3.5
2023-09-17T08:09:08.305Z,3.5
2023-09-17T08:10:16.861Z,3.4
2023-09-17T08:11:25.199Z,3.4
2023-09-17T08:12:33.521Z,3.4
2023-09-17T08:13:42.115Z,3.5
2023-09-17T08:14:50.431Z,3.5
2023-09-17T08:15:58.730Z,3.5
2023-09-17T08:17:07.296Z,3.2
2023-09-17T08:18:15.564Z,3.2
2023-09-17T08:19:24.008Z,3.2
2023-09-17T08:20:32.425Z,3.1
2023-09-17T08:21:40.743Z,3.1
2023-09-17T08:22:49.084Z,3.1
2023-09-17T08:23:57.604Z,3.4
2023-09-17T08:25:05.918Z,3.4
2023-09-17T08:26:14.247Z,3.4
2023-09-17T08:27:22.888Z,3.4
2023-09-17T08:28:31.158Z,3.4
2023-09-17T08:29:39.461Z,3.4
2023-09-17T08:30:48.026Z,3
2023-09-17T08:31:56.327Z,3
2023-09-17T08:33:04.619Z,3
2023-09-17T08:34:13.128Z,3.2
2023-09-17T08:35:21.453Z,3.2
2023-09-17T08:36:29.785Z,3.2
2023-09-17T08:37:38.360Z,3.6
2023-09-17T08:38:46.682Z,3.6
2023-09-17T08:39:54.991Z,3.6
2023-09-17T08:41:03.555Z,3.2
2023-09-17T08:42:11.875Z,3.2
2023-09-17T08:43:20.187Z,3.2
2023-09-17T08:44:28.715Z,3.3
2023-09-17T08:45:37.040Z,3.3
2023-09-17T08:46:45.513Z,3.3
2023-09-17T08:47:54.057Z,3.1
2023-09-17T08:49:02.320Z,3.1
2023-09-17T08:50:10.672Z,3.1
2023-09-17T08:51:19.196Z,2.8
2023-09-17T08:52:27.543Z,2.8
2023-09-17T08:53:35.882Z,2.8
2023-09-17T08:54:44.425Z,3.4
2023-09-17T08:55:52.773Z,3.4
2023-09-17T08:57:01.071Z,3.4
2023-09-17T08:58:09.612Z,2.5
2023-09-17T08:59:18.018Z,2.5
2023-09-17T09:00:26.302Z,2.5
2023-09-17T09:01:34.945Z,2.6
2023-09-17T09:02:43.316Z,2.6
2023-09-17T09:03:51.788Z,2.6
2023-09-17T09:05:00.932Z,2.3
2023-09-17T09:06:09.223Z,2.3
2023-09-17T09:07:17.563Z,2.3
2023-09-17T09:08:26.129Z,3
2023-09-17T09:09:34.467Z,3
2023-09-17T09:10:42.790Z,3
2023-09-17T09:11:51.339Z,2.6
2023-09-17T09:12:59.663Z,2.6
2023-09-17T09:14:08.173Z,2.6
2023-09-17T09:15:16.669Z,2.5
2023-09-17T09:16:24.972Z,2.5
2023-09-17T09:17:33.310Z,2.5
2023-09-17T09:18:41.878Z,2.6
2023-09-17T09:19:50.187Z,2.6
2023-09-17T09:20:58.492Z,2.6
2023-09-17T09:22:07.023Z,2.5
2023-09-17T09:23:15.372Z,2.5
2023-09-17T09:24:25.240Z,2.5
2023-09-17T09:25:40.348Z,2.3
2023-09-17T09:26:53.370Z,2.3
2023-09-17T09:28:04.650Z,2.3
2023-09-17T09:29:15.314Z,2.1
2023-09-17T09:30:24.804Z,2.1
2023-09-17T09:31:35.067Z,2.1
2023-09-17T09:32:46.613Z,2.2
2023-09-17T09:33:56.189Z,2.2
2023-09-17T09:35:06.980Z,2.2
2023-09-17T09:36:16.784Z,2.4
2023-09-17T09:37:27.103Z,2.4
2023-09-17T09:38:37.608Z,2.4
2023-09-17T09:39:50.843Z,2.7
2023-09-17T09:41:00.491Z,2.7
2023-09-17T09:42:11.897Z,2.7
2023-09-17T09:43:29.373Z,2.9
2023-09-17T09:44:38.527Z,2.9
2023-09-17T09:45:49.330Z,2.9
2023-09-17T09:47:00.940Z,2.5
2023-09-17T09:48:09.797Z,2.5
2023-09-17T09:49:20.822Z,2.5
2023-09-17T09:50:32.238Z,2.5
2023-09-17T09:51:43.709Z,2.5
2023-09-17T09:52:53.947Z,2.5
2023-09-17T09:54:04.428Z,2.4
2023-09-17T09:55:14.454Z,2.4
2023-09-17T09:56:24.876Z,2.4
2023-09-17T09:57:38.971Z,2.3
2023-09-17T09:58:47.937Z,2.3
2023-09-17T09:59:57.802Z,2.3
2023-09-17T10:01:09.152Z,2.5
2023-09-17T10:02:19.096Z,2.5
2023-09-17T10:03:28.362Z,2.5
2023-09-17T10:04:37.141Z,2.4
2023-09-17T10:05:45.478Z,2.4
2023-09-17T10:06:53.854Z,2.4
2023-09-17T10:08:02.408Z,2.4
2023-09-17T10:09:10.792Z,2.4
2023-09-17T10:10:19.116Z,2.4
2023-09-17T10:11:27.663Z,2.1
2023-09-17T10:12:35.997Z,2.1
2023-09-17T10:13:44.643Z,2.1
2023-09-17T10:14:53.215Z,2.3
2023-09-17T10:16:01.577Z,2.3
2023-09-17T10:17:09.969Z,2.3
2023-09-17T10:18:18.553Z,2.4
2023-09-17T10:19:26.928Z,2.4
2023-09-17T10:20:35.312Z,2.4
2023-09-17T10:21:43.786Z,2
2023-09-17T10:22:52.164Z,2
2023-09-17T10:24:00.508Z,2
2023-09-17T10:25:09.041Z,2.4
2023-09-17T10:26:17.376Z,2.4
2023-09-17T10:27:25.714Z,2.4
2023-09-17T10:28:34.296Z,2
2023-09-17T10:29:42.576Z,2
2023-09-17T10:30:50.923Z,2
2023-09-17T10:31:59.466Z,2.2
2023-09-17T10:33:07.801Z,2.2
2023-09-17T10:34:16.096Z,2.2
2023-09-17T10:35:24.615Z,2.1
2023-09-17T10:36:32.996Z,2.1
2023-09-17T10:37:41.294Z,2.1
2023-09-17T10:38:49.860Z,2.1
2023-09-17T10:39:58.149Z,2.1
2023-09-17T10:41:06.523Z,2.1
2023-09-17T10:42:15.013Z,2
2023-09-17T10:43:23.365Z,2
2023-09-17T10:44:31.676Z,2
2023-09-17T10:45:40.222Z,2.1
2023-09-17T10:46:48.585Z,2.1
2023-09-17T10:47:56.892Z,2.1
2023-09-17T10:49:05.400Z,2.4
2023-09-17T10:50:13.735Z,2.4
2023-09-17T10:51:22.073Z,2.4
2023-09-17T10:52:30.665Z,2.4
2023-09-17T10:53:38.945Z,2.4
2023-09-17T10:54:47.270Z,2.4
2023-09-17T10:55:55.923Z,2.2
2023-09-17T10:57:04.139Z,2.2
2023-09-17T10:58:12.461Z,2.2
2023-09-17T10:59:20.994Z,1.8
2023-09-17T11:00:29.314Z,1.8
2023-09-17T11:01:37.680Z,1.8
2023-09-17T11:02:46.263Z,2.2
2023-09-17T11:03:54.795Z,2.2
2023-09-17T11:05:02.862Z,2.2
2023-09-17T11:06:11.392Z,1.9
2023-09-17T11:07:19.720Z,1.9
2023-09-17T11:08:28.080Z,1.9
2023-09-17T11:09:36.573Z,1.5
2023-09-17T11:10:44.938Z,1.5
2023-09-17T11:11:53.223Z,1.5
2023-09-17T11:13:01.759Z,1.5
2023-09-17T11:14:10.094Z,1.5
2023-09-17T11:15:18.422Z,1.5
2023-09-17T11:16:26.972Z,1.7
2023-09-17T11:17:35.366Z,1.7
2023-09-17T11:18:43.634Z,1.7
2023-09-17T11:19:52.236Z,2
2023-09-17T11:21:00.545Z,2
2023-09-17T11:22:08.869Z,2
2023-09-17T11:23:17.407Z,1.7
2023-09-17T11:24:25.773Z,1.7
2023-09-17T11:25:34.069Z,1.7
2023-09-17T11:26:42.648Z,2.1
2023-09-17T11:27:50.924Z,2.1
2023-09-17T11:28:59.268Z,2.1
2023-09-17T11:30:07.797Z,1.9
2023-09-17T11:31:16.371Z,1.9
2023-09-17T11:32:24.493Z,1.9
2023-09-17T11:33:33.012Z,2.1
2023-09-17T11:34:41.363Z,2.1
2023-09-17T11:35:49.674Z,2.1
2023-09-17T11:36:58.208Z,2.1
2023-09-17T11:38:06.574Z,2.1
2023-09-17T11:39:14.873Z,2.1
2023-09-17T11:40:23.451Z,1.4
2023-09-17T11:41:31.761Z,1.4
2023-09-17T11:42:40.079Z,1.4
2023-09-17T11:43:48.647Z,1.7
2023-09-17T11:44:56.953Z,1.7
2023-09-17T11:46:05.325Z,1.7
2023-09-17T11:47:14.410Z,1.6
2023-09-17T11:48:22.722Z,1.6
2023-09-17T11:49:31.142Z,1.6
2023-09-17T11:50:39.567Z,1.8
2023-09-17T11:51:47.909Z,1.8
2023-09-17T11:52:56.331Z,1.8
2023-09-17T11:54:04.783Z,1.4
2023-09-17T11:55:13.177Z,1.4
2023-09-17T11:56:21.501Z,1.4
2023-09-17T11:57:29.994Z,1.6
2023-09-17T11:58:38.364Z,1.6
2023-09-17T11:59:46.722Z,1.6
2023-09-17T12:00:55.238Z,1.9
2023-09-17T12:02:03.607Z,1.9
2023-09-17T12:03:11.921Z,1.9
2023-09-17T12:04:20.497Z,1.8
2023-09-17T12:05:28.839Z,1.8
2023-09-17T12:06:37.129Z,1.8
2023-09-17T12:07:54.661Z,1.9
2023-09-17T12:08:55.478Z,1.9
2023-09-17T12:10:06.672Z,1.9
2023-09-17T12:11:16.647Z,1.8
2023-09-17T12:12:25.029Z,1.8
2023-09-17T12:13:33.395Z,1.8
2023-09-17T12:14:41.869Z,1.9
2023-09-17T12:15:50.208Z,1.9
2023-09-17T12:16:59.530Z,1.9
2023-09-17T12:18:08.189Z,1.9
2023-09-17T12:19:18.537Z,1.9
2023-09-17T12:20:24.890Z,1.9
2023-09-17T12:21:33.409Z,1.8
2023-09-17T12:22:41.753Z,1.8
2023-09-17T12:23:50.538Z,1.8
2023-09-17T12:24:58.787Z,1.7
2023-09-17T12:26:07.151Z,1.7
2023-09-17T12:27:15.471Z,1.7
2023-09-17T12:28:24.034Z,1.6
2023-09-17T12:29:32.326Z,1.6
2023-09-17T12:30:40.690Z,1.6
2023-09-17T12:31:49.256Z,1.5
2023-09-17T12:32:57.645Z,1.5
2023-09-17T12:34:05.921Z,1.5
2023-09-17T12:35:14.517Z,1.5
2023-09-17T12:36:22.940Z,1.5
2023-09-17T12:37:31.287Z,1.5
2023-09-17T12:38:39.816Z,1.4
2023-09-17T12:39:48.201Z,1.4
2023-09-17T12:40:56.568Z,1.4
2023-09-17T12:42:05.112Z,1.4
2023-09-17T12:43:13.468Z,1.4
2023-09-17T12:44:21.939Z,1.4
2023-09-17T12:45:30.390Z,1.7
2023-09-17T12:46:38.788Z,1.7
2023-09-17T12:47:47.087Z,1.7
2023-09-17T12:48:55.622Z,1.6
2023-09-17T12:50:04.004Z,1.6
2023-09-17T12:51:12.336Z,1.6
2023-09-17T12:52:20.881Z,1.6
2023-09-17T12:53:29.232Z,1.6
2023-09-17T12:54:37.598Z,1.6
2023-09-17T12:55:46.198Z,1.4
2023-09-17T12:56:54.535Z,1.4
2023-09-17T12:58:02.898Z,1.4
2023-09-17T12:59:11.512Z,1.6
2023-09-17T13:00:19.861Z,1.6
2023-09-17T13:01:28.208Z,1.6
2023-09-17T13:02:36.774Z,1.7
2023-09-17T13:03:45.136Z,1.7
2023-09-17T13:04:53.439Z,1.7
2023-09-17T13:06:01.977Z,1.5
2023-09-17T13:07:10.351Z,1.5
2023-09-17T13:08:18.755Z,1.5
2023-09-17T13:09:27.242Z,1.7
2023-09-17T13:10:35.604Z,1.7
2023-09-17T13:11:43.959Z,1.7
2023-09-17T13:12:52.554Z,1.5
2023-09-17T13:14:00.947Z,1.5
2023-09-17T13:15:09.246Z,1.5
2023-09-17T13:16:17.953Z,1.7
2023-09-17T13:17:26.236Z,1.7
2023-09-17T13:18:34.552Z,1.7
2023-09-17T13:19:43.127Z,1.6
2023-09-17T13:20:51.453Z,1.6
2023-09-17T13:21:59.823Z,1.6
2023-09-17T13:23:08.427Z,1.3
2023-09-17T13:24:16.728Z,1.3
2023-09-17T13:25:25.082Z,1.3
2023-09-17T13:26:33.674Z,1.6
2023-09-17T13:27:42.000Z,1.6
2023-09-17T13:28:50.358Z,1.6
2023-09-17T13:29:58.892Z,1.6
2023-09-17T13:31:07.260Z,1.6
2023-09-17T13:32:15.699Z,1.6
2023-09-17T13:33:24.202Z,1.6
2023-09-17T13:34:32.525Z,1.6
2023-09-17T13:35:40.917Z,1.6
2023-09-17T13:36:49.486Z,1.7
2023-09-17T13:37:57.930Z,1.7
2023-09-17T13:39:06.196Z,1.7
2023-09-17T13:40:14.772Z,1.6
2023-09-17T13:41:23.127Z,1.6
2023-09-17T13:42:31.478Z,1.6
2023-09-17T13:43:40.123Z,1.7
2023-09-17T13:44:48.516Z,1.7
2023-09-17T13:45:56.858Z,1.7
2023-09-17T13:47:05.396Z,1.7
2023-09-17T13:48:13.820Z,1.7
2023-09-17T13:49:22.142Z,1.7
2023-09-17T13:50:30.729Z,1.6
2023-09-17T13:51:39.125Z,1.6
2023-09-17T13:52:47.482Z,1.6
2023-09-17T13:53:56.045Z,1.7
2023-09-17T13:55:04.420Z,1.7
2023-09-17T13:56:12.815Z,1.7
2023-09-17T13:57:21.412Z,1.7
2023-09-17T13:58:29.731Z,1.7
2023-09-17T13:59:38.130Z,1.7
2023-09-17T14:00:46.685Z,1.7
2023-09-17T14:01:55.153Z,1.7
2023-09-17T14:03:03.534Z,1.7
2023-09-17T14:04:12.206Z,1.8
2023-09-17T14:05:20.539Z,1.8
2023-09-17T14:06:28.824Z,1.8
2023-09-17T14:07:47.155Z,1.6
2023-09-17T14:08:55.538Z,1.6
2023-09-17T14:10:03.898Z,1.6
2023-09-17T14:11:12.487Z,1.8
2023-09-17T14:12:20.838Z,1.8
2023-09-17T14:13:29.171Z,1.8
2023-09-17T14:14:37.790Z,1.4
2023-09-17T14:15:46.190Z,1.4
2023-09-17T14:16:54.576Z,1.4
2023-09-17T14:18:03.235Z,1.7
2023-09-17T14:19:11.588Z,1.7
2023-09-17T14:20:20.569Z,1.7
2023-09-17T14:21:29.120Z,1.5
2023-09-17T14:22:37.498Z,1.5
2023-09-17T14:23:45.873Z,1.5
2023-09-17T14:24:54.446Z,1.6
2023-09-17T14:26:02.825Z,1.6
2023-09-17T14:27:11.191Z,1.6
2023-09-17T14:28:19.742Z,1.7
2023-09-17T14:29:28.097Z,1.7
2023-09-17T14:30:36.424Z,1.7
2023-09-17T14:31:45.017Z,1.5
2023-09-17T14:32:53.404Z,1.5
2023-09-17T14:34:01.683Z,1.5
2023-09-17T14:35:10.309Z,1.5
2023-09-17T14:36:18.696Z,1.5
2023-09-17T14:37:27.030Z,1.5
2023-09-17T14:38:35.597Z,1.5
2023-09-17T14:39:43.988Z,1.5
2023-09-17T14:40:52.357Z,1.5
2023-09-17T14:42:00.904Z,1.7
2023-09-17T14:43:09.245Z,1.7
2023-09-17T14:44:17.618Z,1.7
2023-09-17T14:45:26.208Z,1.7
2023-09-17T14:46:34.562Z,1.7
2023-09-17T14:47:42.923Z,1.7
2023-09-17T14:48:51.704Z,2
2023-09-17T14:49:59.849Z,2
2023-09-17T14:51:08.202Z,2
2023-09-17T14:52:16.808Z,1.7
2023-09-17T14:53:25.125Z,1.7
2023-09-17T14:54:33.454Z,1.7
2023-09-17T14:55:42.050Z,1.9
2023-09-17T14:56:50.368Z,1.9
2023-09-17T14:57:58.743Z,1.9
2023-09-17T14:59:07.355Z,1.6
2023-09-17T15:00:15.757Z,1.6
2023-09-17T15:01:47.435Z,1.6
2023-09-17T15:02:32.751Z,1.8
2023-09-17T15:03:41.131Z,1.8
2023-09-17T15:04:49.449Z,1.8
2023-09-17T15:05:57.974Z,1.8
2023-09-17T15:07:06.317Z,1.8
2023-09-17T15:08:14.826Z,1.8
2023-09-17T15:09:25.025Z,1.9
2023-09-17T15:10:31.624Z,1.9
2023-09-17T15:11:39.984Z,1.9
2023-09-17T15:46:25.220Z,0
2023-09-17T15:47:33.566Z,0
2023-09-17T15:48:41.974Z,0
2023-09-17T15:49:50.580Z,2.1
2023-09-17T15:50:58.947Z,2.1
2023-09-17T15:52:07.323Z,2.1
2023-09-17T15:53:16.053Z,2.5
2023-09-17T15:54:24.460Z,2.5
2023-09-17T15:55:32.842Z,2.5
2023-09-17T15:56:41.435Z,2.4
2023-09-17T15:57:49.811Z,2.4
2023-09-17T15:58:58.213Z,2.4
2023-09-17T16:00:06.768Z,2.3
2023-09-17T16:01:15.204Z,2.3
2023-09-17T16:02:23.610Z,2.3
2023-09-17T16:03:32.174Z,2.4
2023-09-17T16:04:40.504Z,2.4
2023-09-17T16:05:48.906Z,2.4
2023-09-17T16:06:57.498Z,2.5
2023-09-17T16:08:05.975Z,2.5
2023-09-17T16:09:14.345Z,2.5
2023-09-17T16:10:22.920Z,2.7
2023-09-17T16:11:31.303Z,2.7
2023-09-17T16:12:39.718Z,2.7
2023-09-17T16:13:48.356Z,2.1
2023-09-17T16:14:56.628Z,2.1
2023-09-17T16:16:05.007Z,2.1
2023-09-17T16:17:13.548Z,2.3
2023-09-17T16:18:21.915Z,2.3
2023-09-17T16:19:30.211Z,2.3
2023-09-17T16:20:38.776Z,2.5
2023-09-17T16:21:47.109Z,2.5
2023-09-17T16:22:55.590Z,2.5
2023-09-17T16:24:04.081Z,2.5